Portada
METAR-TAF:

METAR-TAF

Aeroports :

Lawrenceville-Vincennes International Airport

Lawrenceville, Illinois, Estats Units d'Amèrica

latitud: 38-45-38N, longitud: 087-35-56W, altitud: 131 m

Observació

L'informe es va fer fa 47 minuts, a les 09:53 UTC
Vent 13 kt del Sud
Temperatura 24°C
Humitat 69%
Pressió 1009 hPa
Visibilitat: 16.1 km
Núvols disperses a una alçada de 4700 ft
Cel ennuvolat a una alçada de 6000 ft

METAR: KLWV 220953Z AUTO 19013KT 10SM SCT047 BKN060 24/18 A2979 RMK AO2 LTG DSNT NE AND E SLP084 T02390178

Hora: 05:40 (10:40 UTC)


TAF: manca

Observacions i pronòstics meteorològics de més de 4000 aeroports (METAR i TAF).

Les estacions disponibles són els punts grocs i vermells al mapa.

Posi el ratolí al punt desitjat per veure el nom de l'estació.

Feu clic per veure les observacions i els pronòstics meteorològics.

Per canviar el mapa: feu clic els botons verds amb una creu de color negre per apropar; al botó verd amb un guió per allunyar la imatge; o en les fletxes verdes per a mapes adjacents.


METAR-TAF: